Time;durP1;ratioP1;P1;durP2;ratioP2;P2;SDS_P1;SDS_P2;PMS_P1;PMS_P2;Temp;Humidity;BMP_temperature;BMP_pressure;BME280_temperature;BME280_humidity;BME280_pressure;Samples;Min_cycle;Max_cycle;Signal;HPM_P1;HPM_P2
2022/05/04 00:01:55;;;;;;;5.22;4.82;;;15.90;99.90;;;;;;4995672;28;20085;-76
2022/05/04 00:04:21;;;;;;;8.77;6.10;;;15.90;99.90;;;;;;4978344;28;20077;-76
2022/05/04 00:06:46;;;;;;;6.15;5.28;;;15.80;99.90;;;;;;4995773;28;20026;-76
2022/05/04 00:09:12;;;;;;;6.88;5.65;;;15.80;99.90;;;;;;4995610;28;20110;-76
2022/05/04 00:11:40;;;;;;;6.40;5.80;;;15.80;99.90;;;;;;4995606;28;20050;-76
2022/05/04 00:14:06;;;;;;;8.52;6.18;;;15.80;99.90;;;;;;4977748;28;20057;-76
2022/05/04 00:16:32;;;;;;;7.28;6.22;;;15.80;99.90;;;;;;4995622;28;20411;-76
2022/05/04 00:18:57;;;;;;;6.70;5.90;;;15.70;99.90;;;;;;4995347;28;20553;-76
2022/05/04 00:21:23;;;;;;;5.47;4.97;;;15.70;99.90;;;;;;4977957;28;20142;-76
2022/05/04 00:23:49;;;;;;;8.00;5.65;;;15.70;99.90;;;;;;4995368;28;20029;-76
2022/05/04 00:26:14;;;;;;;6.55;5.93;;;15.70;99.90;;;;;;4995364;28;20025;-76
2022/05/04 00:28:40;;;;;;;6.00;5.40;;;15.70;99.90;;;;;;4995253;28;20049;-76
2022/05/04 00:31:06;;;;;;;6.35;5.75;;;15.70;99.90;;;;;;4977832;28;20105;-76
2022/05/04 00:33:31;;;;;;;6.38;5.75;;;15.70;99.90;;;;;;4977136;28;20439;-76
2022/05/04 00:35:57;;;;;;;6.30;5.70;;;15.70;99.90;;;;;;4993984;28;20022;-76
2022/05/04 00:38:23;;;;;;;8.02;5.68;;;15.60;99.90;;;;;;4993841;28;20035;-76
2022/05/04 00:40:52;;;;;;;9.20;5.63;;;15.60;99.90;;;;;;4993755;28;20388;-76
2022/05/04 00:43:23;;;;;;;6.07;5.57;;;15.70;99.90;;;;;;4976909;28;20037;-76
2022/05/04 00:45:49;;;;;;;6.30;5.57;;;15.60;99.90;;;;;;4977474;28;20030;-76
2022/05/04 00:48:15;;;;;;;8.75;6.40;;;15.60;99.90;;;;;;4994619;28;20034;-76
2022/05/04 00:50:41;;;;;;;5.75;5.13;;;15.60;99.90;;;;;;4994904;28;20019;-76
2022/05/04 00:53:07;;;;;;;6.50;5.57;;;15.60;99.90;;;;;;4994795;28;20081;-76
2022/05/04 00:55:33;;;;;;;6.15;5.55;;;15.60;99.90;;;;;;4994788;28;20437;-76
2022/05/04 01:00:48;;;;;;;7.10;5.20;;;15.60;99.90;;;;;;4994627;28;20037;-76
2022/05/04 01:03:14;;;;;;;8.35;5.72;;;15.50;99.90;;;;;;4994637;28;20049;-76
2022/05/04 01:05:40;;;;;;;9.90;5.38;;;15.50;99.90;;;;;;4994611;28;20089;-76
2022/05/04 01:08:06;;;;;;;6.30;5.40;;;15.50;99.90;;;;;;4994518;28;20440;-76
2022/05/04 01:10:32;;;;;;;8.45;5.75;;;15.50;99.90;;;;;;4977025;28;20493;-76
2022/05/04 01:12:57;;;;;;;8.00;6.43;;;15.50;99.90;;;;;;4993838;28;20030;-76
2022/05/04 01:15:24;;;;;;;7.30;5.85;;;15.50;99.90;;;;;;4976074;28;20029;-76
2022/05/04 01:17:50;;;;;;;6.68;5.97;;;15.50;99.90;;;;;;4993527;28;20033;-76
2022/05/04 01:20:17;;;;;;;12.52;6.25;;;15.50;99.90;;;;;;4993578;28;20109;-76
2022/05/04 01:22:43;;;;;;;7.75;5.70;;;15.50;99.90;;;;;;4995002;28;20030;-76
2022/05/04 01:25:10;;;;;;;7.25;5.38;;;15.50;99.90;;;;;;4992636;28;20026;-76
2022/05/04 01:27:36;;;;;;;7.82;5.60;;;15.50;99.90;;;;;;4975958;28;20022;-76
2022/05/04 01:30:03;;;;;;;6.70;6.10;;;15.40;99.90;;;;;;4994216;28;20019;-76
2022/05/04 01:32:29;;;;;;;6.60;6.00;;;15.50;99.90;;;;;;4976553;28;20022;-76
2022/05/04 01:34:55;;;;;;;6.32;5.72;;;15.50;99.90;;;;;;4994206;28;20033;-76
2022/05/04 01:37:20;;;;;;;6.72;5.97;;;15.50;99.90;;;;;;4976650;28;20038;-76
2022/05/04 01:39:46;;;;;;;7.78;5.95;;;15.50;99.90;;;;;;4976530;28;20034;-76
2022/05/04 01:42:16;;;;;;;10.07;6.13;;;15.50;99.90;;;;;;4993835;28;20084;-77
2022/05/04 01:44:44;;;;;;;6.15;5.55;;;15.50;99.90;;;;;;4993861;28;20027;-76
2022/05/04 01:47:11;;;;;;;8.57;6.60;;;15.50;99.90;;;;;;4976536;28;20030;-76
2022/05/04 01:49:37;;;;;;;7.72;6.03;;;15.50;99.90;;;;;;4976355;28;20018;-76
2022/05/04 01:52:04;;;;;;;6.35;5.75;;;15.50;99.90;;;;;;4993820;28;20030;-76
2022/05/04 01:54:29;;;;;;;8.75;6.30;;;15.40;99.90;;;;;;4976177;28;20144;-76
2022/05/04 01:56:55;;;;;;;6.40;5.80;;;15.50;99.90;;;;;;4993896;28;20086;-76
2022/05/04 01:59:21;;;;;;;10.20;6.75;;;15.40;99.90;;;;;;4976192;28;20549;-76
2022/05/04 02:01:47;;;;;;;7.07;6.38;;;15.40;99.90;;;;;;4993755;28;20428;-76
2022/05/04 02:04:14;;;;;;;8.40;5.82;;;15.30;99.90;;;;;;4993428;28;20115;-76
2022/05/04 02:06:40;;;;;;;8.57;6.28;;;15.30;99.90;;;;;;4976301;28;20069;-76
2022/05/04 02:09:06;;;;;;;6.75;6.00;;;15.40;99.90;;;;;;4993512;28;20054;-77
2022/05/04 02:11:33;;;;;;;7.97;6.05;;;15.30;99.90;;;;;;4993642;28;20022;-76
2022/05/04 02:14:00;;;;;;;8.25;6.13;;;15.30;99.90;;;;;;4993549;28;20551;-77
2022/05/04 02:16:25;;;;;;;7.72;6.22;;;15.20;99.90;;;;;;4993598;28;20105;-76
2022/05/04 02:18:51;;;;;;;7.90;6.65;;;15.20;99.90;;;;;;4993634;28;20050;-76
2022/05/04 02:21:17;;;;;;;6.00;5.40;;;15.20;99.90;;;;;;4993560;28;20026;-76
2022/05/04 02:23:43;;;;;;;6.70;6.10;;;15.20;99.90;;;;;;4993342;28;20524;-76
2022/05/04 02:26:09;;;;;;;7.78;6.15;;;15.20;99.90;;;;;;4993272;28;20024;-76
2022/05/04 02:28:35;;;;;;;6.65;5.95;;;15.20;99.90;;;;;;4993367;28;20058;-76
2022/05/04 02:31:01;;;;;;;6.40;5.90;;;15.20;99.90;;;;;;4993552;28;20061;-76
2022/05/04 02:33:27;;;;;;;8.95;5.97;;;15.20;99.90;;;;;;4975891;28;20027;-76
2022/05/04 02:38:37;;;;;;;7.40;6.60;;;15.20;99.90;;;;;;4997543;28;20096;-76
2022/05/04 02:41:03;;;;;;;6.88;6.28;;;15.20;99.90;;;;;;4997383;28;20030;-76
2022/05/04 02:43:29;;;;;;;7.72;6.20;;;15.10;99.90;;;;;;4997246;28;20022;-76
2022/05/04 02:45:56;;;;;;;7.40;6.70;;;15.10;99.90;;;;;;4997269;28;20081;-76
2022/05/04 02:48:22;;;;;;;9.05;6.18;;;15.10;99.90;;;;;;4979783;28;20019;-76
2022/05/04 02:50:48;;;;;;;9.35;6.78;;;15.20;99.90;;;;;;4979636;28;20030;-76
2022/05/04 02:53:14;;;;;;;6.95;6.35;;;15.10;99.90;;;;;;4996816;28;20480;-77
2022/05/04 02:55:40;;;;;;;6.65;5.90;;;15.10;99.90;;;;;;4979579;28;20466;-76
2022/05/04 02:58:06;;;;;;;8.73;6.10;;;15.10;99.90;;;;;;4979490;28;20035;-76
2022/05/04 03:00:31;;;;;;;6.90;6.20;;;15.10;99.90;;;;;;4997031;28;20153;-76
2022/05/04 03:02:58;;;;;;;7.15;5.88;;;15.10;99.90;;;;;;4979469;28;20120;-76
2022/05/04 03:05:24;;;;;;;8.10;6.60;;;15.00;99.90;;;;;;4996609;28;20030;-76
2022/05/04 03:07:50;;;;;;;8.32;6.53;;;15.00;99.90;;;;;;4996861;28;20380;-76
2022/05/04 03:10:16;;;;;;;9.60;6.13;;;15.00;99.90;;;;;;4979304;28;20015;-76
2022/05/04 03:12:42;;;;;;;9.27;6.25;;;14.90;99.90;;;;;;4996809;28;20054;-76
2022/05/04 03:15:09;;;;;;;10.15;6.70;;;14.90;99.90;;;;;;4996785;28;20124;-77
2022/05/04 03:17:35;;;;;;;6.80;6.20;;;14.90;99.90;;;;;;4978933;28;20066;-76
2022/05/04 03:20:02;;;;;;;6.68;6.07;;;14.90;99.90;;;;;;4996481;28;20022;-76
2022/05/04 03:22:29;;;;;;;7.18;6.47;;;14.80;99.90;;;;;;4996520;28;20030;-76
2022/05/04 03:24:55;;;;;;;7.15;6.28;;;14.80;99.90;;;;;;4996444;28;20510;-76
2022/05/04 03:27:21;;;;;;;10.68;5.85;;;14.80;99.90;;;;;;4978822;28;20036;-76
2022/05/04 03:29:47;;;;;;;7.35;6.18;;;14.80;99.90;;;;;;4978690;28;20026;-76
2022/05/04 03:32:13;;;;;;;8.20;6.45;;;14.80;99.90;;;;;;4996305;28;20052;-76
2022/05/04 03:34:38;;;;;;;6.82;6.05;;;14.80;99.90;;;;;;4996175;28;20023;-76
2022/05/04 03:37:05;;;;;;;10.32;6.88;;;14.80;99.90;;;;;;4996346;28;20034;-76
2022/05/04 03:39:31;;;;;;;7.28;5.80;;;14.80;99.90;;;;;;4978690;28;20027;-76
2022/05/04 03:41:57;;;;;;;8.95;6.60;;;14.80;99.90;;;;;;4978989;28;20030;-76
2022/05/04 03:44:23;;;;;;;10.35;6.78;;;14.90;99.90;;;;;;4996073;28;20022;-76
2022/05/04 03:46:51;;;;;;;7.75;6.95;;;14.90;99.90;;;;;;4996204;28;20083;-76
2022/05/04 03:49:19;;;;;;;8.43;6.57;;;14.90;99.90;;;;;;4995022;28;20033;-76
2022/05/04 03:51:45;;;;;;;7.20;6.50;;;14.90;99.90;;;;;;4996090;28;20026;-76
2022/05/04 03:54:11;;;;;;;7.25;6.55;;;14.90;99.90;;;;;;4996063;28;20057;-76
2022/05/04 03:56:39;;;;;;;6.90;6.20;;;14.90;99.90;;;;;;4996043;28;20052;-76
2022/05/04 03:59:06;;;;;;;7.10;6.13;;;14.90;99.90;;;;;;4995748;28;20501;-76
2022/05/04 04:01:32;;;;;;;6.85;6.05;;;15.00;99.90;;;;;;4978484;28;20443;-76
2022/05/04 04:03:58;;;;;;;11.18;7.00;;;15.00;99.90;;;;;;4995729;28;20023;-76
2022/05/04 04:06:23;;;;;;;8.82;6.55;;;14.90;99.90;;;;;;4992792;28;20031;-76
2022/05/04 04:08:50;;;;;;;7.28;6.22;;;14.90;99.90;;;;;;4958793;28;20019;-76
2022/05/04 04:11:17;;;;;;;13.60;6.93;;;14.90;99.90;;;;;;4959088;28;20030;-76
2022/05/04 04:13:43;;;;;;;8.20;6.70;;;14.90;99.90;;;;;;4976282;28;20019;-76
2022/05/04 04:16:09;;;;;;;7.05;6.20;;;14.90;99.90;;;;;;4958784;28;20117;-76
2022/05/04 04:18:35;;;;;;;9.38;7.07;;;14.90;99.90;;;;;;4958610;28;20042;-76
2022/05/04 04:23:45;;;;;;;6.68;6.07;;;14.80;99.90;;;;;;4975969;28;20029;-76
2022/05/04 04:26:11;;;;;;;7.85;6.93;;;14.80;99.90;;;;;;4975869;28;20027;-76
2022/05/04 04:28:39;;;;;;;8.95;6.88;;;14.90;99.90;;;;;;4975710;28;20027;-76
2022/05/04 04:31:06;;;;;;;7.70;6.95;;;14.90;99.90;;;;;;4975870;28;20030;-76
2022/05/04 04:33:32;;;;;;;7.65;6.95;;;14.90;99.90;;;;;;4975899;28;20023;-76
2022/05/04 04:35:59;;;;;;;6.93;6.22;;;14.90;99.90;;;;;;4975801;28;20077;-76
2022/05/04 04:38:25;;;;;;;10.65;6.93;;;14.90;99.90;;;;;;4975734;28;20034;-76
2022/05/04 04:40:51;;;;;;;7.82;6.25;;;14.90;99.90;;;;;;4982910;28;20038;-76
2022/05/04 04:43:17;;;;;;;7.95;7.05;;;14.90;99.90;;;;;;4977383;28;20032;-76
2022/05/04 04:45:47;;;;;;;9.52;6.82;;;14.90;99.90;;;;;;4963292;28;20033;-76
2022/05/04 04:48:17;;;;;;;9.70;6.80;;;15.00;99.90;;;;;;4965996;28;20447;-76
2022/05/04 04:50:47;;;;;;;7.50;6.80;;;15.00;99.90;;;;;;4976054;28;20023;-76
2022/05/04 04:53:14;;;;;;;7.28;6.35;;;15.00;99.90;;;;;;4994475;28;20104;-76
2022/05/04 04:55:44;;;;;;;6.80;6.10;;;15.00;99.90;;;;;;4994149;28;20038;-76
2022/05/04 04:58:10;;;;;;;9.73;7.70;;;15.00;99.90;;;;;;4983295;28;20026;-76
2022/05/04 05:00:36;;;;;;;9.20;6.63;;;15.00;99.90;;;;;;4994470;28;20030;-76
2022/05/04 05:03:03;;;;;;;10.48;7.22;;;15.00;99.90;;;;;;4994474;28;20109;-76
2022/05/04 05:05:28;;;;;;;8.15;7.20;;;15.10;99.90;;;;;;4994688;28;20125;-76
2022/05/04 05:07:54;;;;;;;7.03;6.35;;;15.10;99.90;;;;;;4994264;28;20496;-76
2022/05/04 05:10:20;;;;;;;10.15;6.82;;;15.10;99.90;;;;;;4993992;28;20023;-76
2022/05/04 05:12:46;;;;;;;9.50;6.88;;;15.10;99.90;;;;;;4994284;28;20038;-76
2022/05/04 05:17:56;;;;;;;7.90;6.50;;;15.20;99.90;;;;;;5007288;28;20100;-76
2022/05/04 05:20:22;;;;;;;8.68;6.78;;;15.30;99.90;;;;;;5013701;28;20488;-76
2022/05/04 05:22:48;;;;;;;13.05;6.60;;;15.20;99.90;;;;;;5013702;28;20114;-76
2022/05/04 05:25:14;;;;;;;8.63;6.85;;;15.30;99.90;;;;;;5013532;28;20057;-76
2022/05/04 05:27:40;;;;;;;8.10;6.35;;;15.30;99.90;;;;;;5013385;28;20036;-76
2022/05/04 05:30:07;;;;;;;11.35;7.97;;;15.30;99.90;;;;;;5013540;28;20095;-76
2022/05/04 05:32:32;;;;;;;7.57;6.88;;;15.40;99.90;;;;;;5013547;28;20028;-76
2022/05/04 05:34:58;;;;;;;8.50;6.95;;;15.40;99.90;;;;;;5013556;28;20025;-76
2022/05/04 05:37:24;;;;;;;7.05;6.22;;;15.40;99.90;;;;;;5013447;28;20049;-76
2022/05/04 05:39:52;;;;;;;9.13;6.68;;;15.50;99.90;;;;;;5013281;28;20026;-76
2022/05/04 05:42:18;;;;;;;9.93;6.97;;;15.60;99.90;;;;;;5013591;28;20029;-76
2022/05/04 05:44:44;;;;;;;10.18;7.03;;;15.60;99.90;;;;;;5013682;28;20399;-76
2022/05/04 05:47:09;;;;;;;9.32;7.68;;;15.60;99.90;;;;;;5013541;28;20501;-76
2022/05/04 05:49:35;;;;;;;9.15;7.63;;;15.60;99.90;;;;;;5013408;28;20037;-76
2022/05/04 05:52:01;;;;;;;14.80;7.40;;;15.60;99.90;;;;;;5013344;28;20018;-76
2022/05/04 05:54:27;;;;;;;13.73;8.15;;;15.60;99.90;;;;;;5013246;28;20081;-76
2022/05/04 05:56:52;;;;;;;10.65;7.22;;;15.70;99.90;;;;;;4995842;28;20034;-76
2022/05/04 05:59:18;;;;;;;10.40;7.90;;;15.70;99.90;;;;;;5013409;28;20044;-76
2022/05/04 06:01:44;;;;;;;9.73;7.32;;;15.80;99.90;;;;;;5006565;28;20116;-76
2022/05/04 06:04:10;;;;;;;10.45;7.82;;;15.80;99.90;;;;;;4976233;28;20125;-76
2022/05/04 06:06:36;;;;;;;10.57;8.20;;;15.90;99.90;;;;;;4993725;28;20029;-76
2022/05/04 06:09:03;;;;;;;8.68;7.78;;;16.00;99.90;;;;;;4993575;28;20033;-76
2022/05/04 06:11:31;;;;;;;14.35;8.30;;;16.10;99.90;;;;;;4975706;28;20030;-76
2022/05/04 06:13:56;;;;;;;11.77;8.13;;;16.10;99.90;;;;;;4993581;28;20026;-76
2022/05/04 06:16:22;;;;;;;9.70;7.80;;;16.10;99.90;;;;;;4993467;28;20015;-76
2022/05/04 06:18:48;;;;;;;10.32;7.40;;;16.20;99.90;;;;;;4993543;28;20450;-76
2022/05/04 06:21:14;;;;;;;9.25;8.02;;;16.20;99.90;;;;;;4993523;28;20493;-76
2022/05/04 06:23:40;;;;;;;8.23;6.80;;;16.20;99.90;;;;;;4976215;28;20030;-76
2022/05/04 06:26:05;;;;;;;11.45;8.57;;;16.30;99.90;;;;;;4993441;28;20032;-76
2022/05/04 06:28:31;;;;;;;13.23;8.38;;;16.30;99.90;;;;;;4993557;28;20049;-76
2022/05/04 06:36:25;;;;;;;9.85;7.82;;;16.30;99.90;;;;;;4993481;28;20042;-76
2022/05/04 06:39:29;;;;;;;11.35;8.43;;;16.30;99.90;;;;;;4993297;28;20030;-77
2022/05/04 06:41:55;;;;;;;15.77;12.00;;;16.30;99.90;;;;;;4993337;28;20035;-75
2022/05/04 06:44:21;;;;;;;14.25;11.73;;;16.30;99.90;;;;;;4992798;28;20025;-78
2022/05/04 06:46:47;;;;;;;12.55;9.48;;;16.30;99.90;;;;;;4993411;28;20380;-78
2022/05/04 06:49:13;;;;;;;11.55;8.38;;;16.40;99.90;;;;;;4993529;28;20025;-78
2022/05/04 06:51:39;;;;;;;9.68;8.50;;;16.40;99.90;;;;;;4993360;28;20443;-78
2022/05/04 06:54:05;;;;;;;9.25;7.95;;;16.40;99.90;;;;;;4975528;28;20051;-78
2022/05/04 06:56:31;;;;;;;11.85;8.40;;;16.50;99.90;;;;;;4993059;28;20057;-77
2022/05/04 06:58:56;;;;;;;18.33;10.18;;;16.50;99.90;;;;;;4992940;28;20014;-78
2022/05/04 07:01:22;;;;;;;13.07;9.55;;;16.50;99.90;;;;;;4992404;28;20113;-78
2022/05/04 07:03:48;;;;;;;13.93;8.90;;;16.60;99.90;;;;;;4991548;28;20030;-78
2022/05/04 07:06:13;;;;;;;10.35;8.52;;;16.70;99.90;;;;;;4992155;28;20026;-77
2022/05/04 07:08:39;;;;;;;11.75;7.85;;;16.80;99.90;;;;;;4992124;28;20034;-78
2022/05/04 07:11:05;;;;;;;11.95;8.95;;;16.80;99.90;;;;;;4992551;28;20076;-77
2022/05/04 07:13:31;;;;;;;10.30;8.70;;;16.90;99.90;;;;;;4975053;28;20383;-78
2022/05/04 07:15:56;;;;;;;11.68;8.90;;;16.90;99.90;;;;;;4992717;28;20098;-78
2022/05/04 07:18:23;;;;;;;10.40;9.23;;;16.90;99.90;;;;;;4992379;28;20023;-78
2022/05/04 07:20:48;;;;;;;13.45;8.85;;;17.00;99.90;;;;;;4992359;28;20026;-78
2022/05/04 07:23:14;;;;;;;15.73;8.82;;;17.00;99.90;;;;;;4992546;28;20025;-78
2022/05/04 07:25:40;;;;;;;11.10;8.70;;;17.10;99.90;;;;;;5001419;28;20029;-77
2022/05/04 07:28:06;;;;;;;12.90;9.32;;;17.10;99.90;;;;;;5015456;28;20018;-78
2022/05/04 07:30:32;;;;;;;16.08;9.20;;;17.10;99.90;;;;;;4997715;28;20163;-78
2022/05/04 07:32:58;;;;;;;14.32;9.95;;;17.20;99.90;;;;;;4997812;28;20076;-77
2022/05/04 07:35:24;;;;;;;11.32;9.20;;;17.20;99.90;;;;;;4997789;28;20022;-78
2022/05/04 07:37:50;;;;;;;12.18;9.30;;;17.30;99.90;;;;;;4997627;28;20040;-78
2022/05/04 07:43:00;;;;;;;12.30;9.35;;;17.50;99.90;;;;;;5015355;28;20041;-78
2022/05/04 07:45:25;;;;;;;17.58;10.55;;;17.70;99.90;;;;;;5015238;28;20383;-78
2022/05/04 07:47:51;;;;;;;15.25;9.30;;;17.80;99.90;;;;;;5015076;28;20159;-77
2022/05/04 07:50:17;;;;;;;12.55;8.80;;;17.80;99.90;;;;;;5015267;28;20024;-77
2022/05/04 07:52:43;;;;;;;11.70;8.30;;;17.90;99.90;;;;;;5015058;28;20390;-78
2022/05/04 07:55:10;;;;;;;15.82;10.07;;;18.00;99.90;;;;;;4995849;28;20050;-77
2022/05/04 07:57:36;;;;;;;13.38;9.75;;;18.00;99.90;;;;;;4995820;28;20407;-78
2022/05/04 08:05:34;;;;;;;14.10;9.65;;;18.00;99.90;;;;;;4995696;28;20629;-74
2022/05/04 08:08:00;;;;;;;16.80;11.30;;;18.10;99.90;;;;;;4995110;28;20026;-74
2022/05/04 08:10:27;;;;;;;13.95;10.10;;;18.10;99.90;;;;;;4977820;28;20547;-74
2022/05/04 08:12:53;;;;;;;14.82;10.90;;;18.10;99.90;;;;;;4995158;28;20049;-74
2022/05/04 08:15:19;;;;;;;15.57;11.20;;;18.20;99.90;;;;;;4995299;28;20026;-74
2022/05/04 08:17:45;;;;;;;14.43;11.25;;;18.20;99.90;;;;;;4977502;28;20113;-74
2022/05/04 08:20:11;;;;;;;16.65;11.52;;;18.20;99.90;;;;;;4995147;28;20109;-74
2022/05/04 08:22:37;;;;;;;14.63;10.50;;;18.20;99.90;;;;;;4977185;28;20089;-73
2022/05/04 08:25:03;;;;;;;16.35;10.82;;;18.40;99.90;;;;;;4976832;28;20030;-74
2022/05/04 08:27:31;;;;;;;21.02;11.98;;;18.40;99.90;;;;;;4976837;28;20029;-74
2022/05/04 08:29:58;;;;;;;15.85;10.52;;;18.40;99.90;;;;;;4977049;28;20077;-74
2022/05/04 08:32:29;;;;;;;13.80;10.73;;;18.50;99.90;;;;;;4977178;28;20058;-73
2022/05/04 08:34:56;;;;;;;18.00;11.65;;;18.50;99.90;;;;;;4994576;28;20054;-74
2022/05/04 08:37:21;;;;;;;16.75;11.10;;;18.50;99.90;;;;;;4994932;28;20101;-73
2022/05/04 08:39:47;;;;;;;17.70;11.45;;;18.50;99.90;;;;;;4994938;28;20117;-74
2022/05/04 08:42:14;;;;;;;17.00;10.98;;;18.60;99.90;;;;;;4994847;28;20042;-74
2022/05/04 08:44:40;;;;;;;21.00;11.57;;;18.60;99.90;;;;;;4994879;28;20030;-74
2022/05/04 08:47:12;;;;;;;17.45;10.98;;;18.60;99.90;;;;;;4977355;28;20085;-73
2022/05/04 08:49:40;;;;;;;21.17;12.23;;;18.70;99.90;;;;;;4994827;28;20018;-73
2022/05/04 08:52:07;;;;;;;19.02;11.13;;;18.70;99.90;;;;;;4994537;28;20018;-73
2022/05/04 08:54:33;;;;;;;15.85;11.82;;;18.70;99.90;;;;;;4994388;28;20492;-73
2022/05/04 08:57:00;;;;;;;17.75;11.65;;;18.80;99.90;;;;;;4994676;28;20022;-74
2022/05/04 08:59:28;;;;;;;19.75;13.10;;;18.90;99.90;;;;;;4994522;28;20026;-74
2022/05/04 09:01:54;;;;;;;26.20;12.77;;;18.90;99.90;;;;;;4994315;28;20026;-73
2022/05/04 09:04:19;;;;;;;17.52;11.25;;;18.90;99.90;;;;;;4994335;28;20029;-74
2022/05/04 09:06:45;;;;;;;16.92;10.63;;;19.10;99.90;;;;;;4994380;28;20153;-73
2022/05/04 09:09:12;;;;;;;12.25;9.15;;;19.20;99.90;;;;;;4994420;28;20026;-74
2022/05/04 09:11:45;;;;;;;11.65;9.82;;;19.20;99.70;;;;;;4994313;28;20030;-73
2022/05/04 09:14:26;;;;;;;11.60;9.25;;;19.20;98.60;;;;;;4976858;28;20384;-74
2022/05/04 09:16:52;;;;;;;10.13;7.78;;;19.40;98.90;;;;;;4994328;28;20109;-74
2022/05/04 09:19:19;;;;;;;12.32;8.95;;;19.40;97.10;;;;;;4993843;28;20019;-73
2022/05/04 09:21:48;;;;;;;14.85;7.93;;;19.50;97.50;;;;;;4994165;28;20449;-74
2022/05/04 09:24:57;;;;;;;9.52;7.55;;;19.50;97.50;;;;;;4997413;28;20011;-74
2022/05/04 09:27:29;;;;;;;8.63;6.07;;;19.70;97.00;;;;;;4940111;28;20030;-74
2022/05/04 09:30:05;;;;;;;8.63;6.35;;;19.90;96.70;;;;;;5004738;23;20563;-74
2022/05/04 09:32:31;;;;;;;9.55;6.38;;;20.00;95.80;;;;;;4951960;28;20417;-73
2022/05/04 09:34:57;;;;;;;14.48;7.10;;;20.10;95.40;;;;;;4955360;28;20037;-75
2022/05/04 09:45:55;;;;;;;6.75;5.82;;;20.40;93.50;;;;;;4951023;28;20042;-73
2022/05/04 09:48:47;;;;;;;7.38;5.90;;;20.40;91.30;;;;;;4972951;28;20396;-74
2022/05/04 09:51:13;;;;;;;9.52;8.57;;;20.40;90.70;;;;;;4954622;28;20035;-74
2022/05/04 09:53:39;;;;;;;7.72;6.93;;;20.50;92.10;;;;;;4973903;28;20369;-74
2022/05/04 09:56:05;;;;;;;11.48;6.93;;;20.50;91.90;;;;;;4956301;28;20640;-74
2022/05/04 09:58:31;;;;;;;7.65;5.57;;;20.40;92.80;;;;;;4973676;28;20073;-74
2022/05/04 10:01:00;;;;;;;4.35;4.03;;;20.50;91.00;;;;;;4956449;28;20503;-74
2022/05/04 10:03:26;;;;;;;3.95;3.65;;;20.70;84.80;;;;;;4973807;28;20472;-74
2022/05/04 10:05:54;;;;;;;4.40;3.53;;;20.60;80.40;;;;;;4973464;28;20026;-74
2022/05/04 10:08:22;;;;;;;3.25;3.05;;;20.70;83.80;;;;;;4956161;28;20047;-74
2022/05/04 10:10:49;;;;;;;3.72;3.42;;;20.90;81.80;;;;;;4956214;28;20105;-74
2022/05/04 10:13:18;;;;;;;5.20;3.83;;;20.90;78.60;;;;;;4955981;28;20117;-74
2022/05/04 10:15:46;;;;;;;6.50;4.53;;;20.90;78.20;;;;;;4972852;28;20074;-74
2022/05/04 10:18:24;;;;;;;4.45;4.15;;;21.10;83.40;;;;;;4971697;28;20031;-74
2022/05/04 10:21:02;;;;;;;4.63;4.07;;;21.20;81.60;;;;;;4973949;28;20070;-74
2022/05/04 10:23:35;;;;;;;4.95;2.92;;;21.20;76.60;;;;;;4972440;28;20077;-74
2022/05/04 10:26:04;;;;;;;4.32;3.30;;;21.30;75.80;;;;;;4973815;28;20090;-74
2022/05/04 10:28:36;;;;;;;4.03;2.45;;;21.40;74.10;;;;;;4973856;28;20030;-74
2022/05/04 10:31:10;;;;;;;4.70;3.58;;;21.40;74.20;;;;;;4973517;28;20122;-74
2022/05/04 10:33:37;;;;;;;4.38;4.00;;;21.60;81.10;;;;;;4956287;28;20612;-74
2022/05/04 10:36:28;;;;;;;12.60;4.65;;;21.70;80.20;;;;;;4956441;28;20384;-73
2022/05/04 10:38:59;;;;;;;5.43;4.20;;;21.90;75.20;;;;;;4973551;28;20031;-74
2022/05/04 10:41:39;;;;;;;4.75;3.60;;;21.90;77.10;;;;;;4956008;28;20058;-74
2022/05/04 10:44:09;;;;;;;4.50;4.03;;;22.00;81.10;;;;;;4973644;28;20049;-73
2022/05/04 10:46:41;;;;;;;4.85;4.45;;;22.10;78.50;;;;;;4973611;28;20027;-73
2022/05/04 10:49:11;;;;;;;5.53;4.32;;;22.10;73.90;;;;;;4973528;28;20027;-74
2022/05/04 10:51:42;;;;;;;5.97;4.85;;;22.00;76.50;;;;;;4973522;28;20053;-73
2022/05/04 10:54:18;;;;;;;6.32;4.63;;;22.20;79.40;;;;;;4956220;28;20418;-73
2022/05/04 10:56:50;;;;;;;5.57;4.90;;;22.30;76.90;;;;;;4973761;28;20082;-73
2022/05/04 10:59:33;;;;;;;4.90;4.43;;;22.20;70.30;;;;;;5066827;23;20078;-73
2022/05/04 11:02:04;;;;;;;5.80;5.20;;;22.10;68.50;;;;;;5014681;28;20030;-74
2022/05/04 11:04:30;;;;;;;9.20;5.93;;;22.10;74.40;;;;;;4997579;28;20037;-74
2022/05/04 11:07:07;;;;;;;5.55;5.00;;;22.30;70.60;;;;;;4997102;28;20494;-73
2022/05/04 11:09:47;;;;;;;6.45;5.82;;;22.50;72.90;;;;;;5015293;28;20010;-73
2022/05/04 11:12:13;;;;;;;6.13;5.53;;;22.70;78.00;;;;;;4997913;28;20065;-74
2022/05/04 11:14:39;;;;;;;6.15;5.55;;;22.80;79.30;;;;;;5015418;28;20037;-73
2022/05/04 11:17:16;;;;;;;8.95;6.10;;;22.90;76.90;;;;;;4998174;28;20045;-74
2022/05/04 11:19:48;;;;;;;11.23;5.10;;;22.70;77.10;;;;;;5014257;28;20061;-74
2022/05/04 11:22:16;;;;;;;5.47;4.70;;;22.70;72.10;;;;;;4998064;28;20065;-74
2022/05/04 11:24:43;;;;;;;6.45;4.85;;;22.70;70.30;;;;;;5015305;28;20021;-74
2022/05/04 11:27:11;;;;;;;6.65;4.05;;;22.70;67.90;;;;;;5016128;28;20041;-77
2022/05/04 11:29:37;;;;;;;6.20;4.20;;;22.70;69.30;;;;;;5016063;28;20046;-78
2022/05/04 11:32:05;;;;;;;4.38;3.97;;;22.70;69.60;;;;;;5016105;28;20026;-77
2022/05/04 11:34:38;;;;;;;4.82;4.35;;;22.70;72.10;;;;;;5016024;28;20036;-77
2022/05/04 11:37:07;;;;;;;5.20;4.05;;;22.60;69.10;;;;;;5015831;28;20037;-78
2022/05/04 11:39:34;;;;;;;4.90;4.38;;;22.80;72.10;;;;;;5015963;28;20109;-77
2022/05/04 11:42:01;;;;;;;5.13;4.72;;;23.20;72.60;;;;;;5015791;28;20022;-77
2022/05/04 11:44:29;;;;;;;5.20;4.72;;;23.40;69.30;;;;;;5015536;28;20365;-77
2022/05/04 11:46:57;;;;;;;4.40;4.07;;;23.30;66.60;;;;;;5015682;28;20022;-77
2022/05/04 11:49:24;;;;;;;4.50;3.55;;;23.40;69.30;;;;;;5015831;28;20421;-78
2022/05/04 11:51:52;;;;;;;4.75;4.35;;;23.40;64.40;;;;;;5029675;23;20427;-73
2022/05/04 11:54:18;;;;;;;4.25;3.90;;;23.30;65.10;;;;;;4996444;28;20087;-73
2022/05/04 11:56:44;;;;;;;5.93;5.38;;;23.30;63.80;;;;;;5013987;28;20033;-73
2022/05/04 11:59:10;;;;;;;7.13;5.20;;;23.30;66.20;;;;;;4996693;28;20030;-73
2022/05/04 12:01:37;;;;;;;4.95;4.55;;;23.40;64.60;;;;;;5014880;28;20109;-73
2022/05/04 12:04:05;;;;;;;8.45;5.13;;;23.60;66.40;;;;;;4997412;28;20025;-73
2022/05/04 12:06:32;;;;;;;5.00;4.60;;;23.90;65.90;;;;;;5015200;28;20037;-74
2022/05/04 12:08:59;;;;;;;5.10;4.60;;;24.00;65.00;;;;;;5014401;28;20097;-73
2022/05/04 12:11:26;;;;;;;4.30;4.00;;;24.10;62.00;;;;;;4997266;28;20040;-74
2022/05/04 12:13:52;;;;;;;5.78;5.28;;;24.30;65.20;;;;;;4997364;28;20134;-73
2022/05/04 12:16:19;;;;;;;4.60;4.20;;;24.40;59.00;;;;;;4997370;28;20026;-73
2022/05/04 12:18:47;;;;;;;4.75;4.13;;;24.30;57.70;;;;;;5015046;28;20026;-74
2022/05/04 12:21:19;;;;;;;3.80;3.50;;;24.30;59.80;;;;;;4997425;28;20030;-73
2022/05/04 12:23:51;;;;;;;5.82;3.90;;;24.30;57.40;;;;;;4997383;28;20077;-78
2022/05/04 12:26:18;;;;;;;5.25;4.15;;;24.40;58.30;;;;;;4997458;28;20571;-78
2022/05/04 12:33:08;;;;;;;3.90;3.65;;;24.40;56.20;;;;;;4997129;28;20057;-78
2022/05/04 12:34:23;;;;;;;3.35;3.15;;;24.60;56.50;;;;;;5014883;28;20490;-78
2022/05/04 12:36:50;;;;;;;4.57;4.22;;;24.80;58.20;;;;;;4997569;28;20034;-78
2022/05/04 12:39:16;;;;;;;3.63;3.33;;;24.90;57.30;;;;;;5014869;28;20102;-78
2022/05/04 12:41:44;;;;;;;3.38;3.15;;;25.00;55.00;;;;;;5014658;28;20018;-78
2022/05/04 12:44:10;;;;;;;4.72;3.67;;;25.00;52.90;;;;;;5014527;28;20506;-77
2022/05/04 12:46:37;;;;;;;3.70;3.40;;;25.00;54.10;;;;;;5014870;28;20022;-78
2022/05/04 12:49:03;;;;;;;3.45;3.15;;;25.10;54.00;;;;;;5014749;28;20026;-78
2022/05/04 12:51:30;;;;;;;5.13;3.50;;;25.30;54.70;;;;;;5014345;28;20100;-78
2022/05/04 12:53:56;;;;;;;4.13;3.72;;;25.20;53.80;;;;;;5014635;28;20423;-73
2022/05/04 12:59:06;;;;;;;5.93;5.43;;;25.00;53.90;;;;;;5014418;28;20108;-74
2022/05/04 13:01:34;;;;;;;7.05;6.25;;;25.00;54.00;;;;;;4996527;28;20049;-74
2022/05/04 13:04:00;;;;;;;5.88;5.40;;;24.90;57.60;;;;;;4996539;28;20030;-76
2022/05/04 13:06:26;;;;;;;5.13;4.63;;;24.90;57.40;;;;;;4996324;28;20028;-75
2022/05/04 13:08:53;;;;;;;3.92;3.65;;;25.00;59.00;;;;;;4996313;28;20026;-75
2022/05/04 13:11:20;;;;;;;6.43;4.40;;;25.00;57.20;;;;;;5014145;28;20026;-75
2022/05/04 13:13:46;;;;;;;4.93;4.10;;;25.00;55.80;;;;;;4996199;28;20026;-75
2022/05/04 13:16:12;;;;;;;5.82;4.38;;;25.10;56.10;;;;;;4996200;28;20080;-75
2022/05/04 13:21:10;;;;;;;;;;;25.30;54.80;;;;;;5059136;23;19922;-77
2022/05/04 13:23:36;;;;;;;9.38;5.07;;;25.40;55.70;;;;;;5014103;28;19909;-75
2022/05/04 13:26:02;;;;;;;6.70;5.20;;;25.30;53.90;;;;;;5013654;28;20116;-75